createdAt,value
2018-09-10T00:02:06.955Z,10.60
2018-09-10T00:04:57.376Z,10.60
2018-09-10T00:07:26.893Z,10.70
2018-09-10T00:09:56.362Z,10.70
2018-09-10T00:12:25.714Z,10.80
2018-09-10T00:14:54.539Z,10.80
2018-09-10T00:22:01.625Z,11.00
2018-09-10T00:26:07.269Z,11.00
2018-09-10T00:31:48.018Z,11.20
2018-09-10T00:34:17.111Z,11.20
2018-09-10T00:36:53.866Z,11.20
2018-09-10T00:43:41.424Z,11.20
2018-09-10T00:46:10.147Z,11.40
2018-09-10T00:48:41.394Z,11.50
2018-09-10T00:51:11.955Z,11.40
2018-09-10T00:53:46.316Z,11.30
2018-09-10T00:56:17.256Z,11.20
2018-09-10T00:58:50.933Z,11.10
2018-09-10T01:01:25.197Z,11.10
2018-09-10T01:07:35.448Z,11.10
2018-09-10T01:10:05.397Z,11.00
2018-09-10T01:12:41.320Z,11.10
2018-09-10T01:15:17.072Z,11.10
2018-09-10T01:17:45.863Z,11.20
2018-09-10T01:21:18.892Z,11.30
2018-09-10T01:23:47.466Z,11.40
2018-09-10T01:26:18.397Z,11.50
2018-09-10T01:28:47.250Z,11.60
2018-09-10T01:31:24.014Z,11.70
2018-09-10T01:33:58.334Z,11.50
2018-09-10T01:36:28.864Z,11.20
2018-09-10T01:38:59.293Z,11.10
2018-09-10T01:41:28.598Z,11.00
2018-09-10T01:44:14.585Z,10.90
2018-09-10T01:54:40.551Z,10.70
2018-09-10T01:57:10.980Z,10.80
2018-09-10T01:59:53.495Z,10.80
2018-09-10T02:05:20.234Z,10.60
2018-09-10T02:07:54.581Z,10.60
2018-09-10T02:10:27.642Z,10.50
2018-09-10T02:13:15.263Z,10.40
2018-09-10T02:16:05.195Z,10.30
2018-09-10T02:18:35.029Z,10.30
2018-09-10T02:24:11.525Z,10.40
2018-09-10T02:29:41.856Z,10.50
2018-09-10T02:34:22.246Z,10.50
2018-09-10T02:36:52.881Z,10.60
2018-09-10T02:39:21.878Z,10.60
2018-09-10T02:53:42.804Z,10.60
2018-09-10T02:56:20.668Z,10.50
2018-09-10T02:59:40.473Z,10.50
2018-09-10T03:02:09.659Z,10.50
2018-09-10T03:04:38.860Z,10.50
2018-09-10T03:07:07.106Z,10.70
2018-09-10T03:09:35.932Z,10.90
2018-09-10T03:12:05.544Z,10.90
2018-09-10T03:14:37.714Z,10.90
2018-09-10T03:17:14.486Z,10.90
2018-09-10T03:19:46.517Z,10.90
2018-09-10T03:22:36.835Z,11.00
2018-09-10T03:26:02.923Z,11.00
2018-09-10T03:28:36.938Z,11.00
2018-09-10T03:31:13.276Z,10.90
2018-09-10T03:33:50.493Z,10.90
2018-09-10T03:36:30.344Z,10.90
2018-09-10T03:39:16.047Z,11.00
2018-09-10T03:41:47.261Z,11.10
2018-09-10T03:44:23.365Z,11.20
2018-09-10T03:46:54.785Z,11.10
2018-09-10T03:49:28.271Z,11.10
2018-09-10T03:57:07.029Z,11.10
2018-09-10T03:59:36.230Z,11.00
2018-09-10T04:02:32.961Z,11.00
2018-09-10T04:05:08.198Z,11.00
2018-09-10T04:09:45.980Z,11.10
2018-09-10T04:12:14.926Z,11.30
2018-09-10T04:14:44.333Z,11.50
2018-09-10T04:17:13.485Z,11.50
2018-09-10T04:19:48.772Z,11.50
2018-09-10T04:22:17.769Z,11.40
2018-09-10T04:24:54.646Z,11.40
2018-09-10T04:27:24.154Z,11.40
2018-09-10T04:29:53.559Z,11.40
2018-09-10T04:32:35.246Z,11.40
2018-09-10T04:35:28.088Z,11.50
2018-09-10T04:38:01.792Z,11.60
2018-09-10T04:43:37.852Z,11.60
2018-09-10T04:46:08.077Z,11.60
2018-09-10T04:48:43.316Z,11.60
2018-09-10T04:52:14.710Z,11.50
2018-09-10T04:54:43.425Z,11.50
2018-09-10T04:57:12.524Z,11.60
2018-09-10T04:59:41.316Z,11.60
2018-09-10T05:05:31.706Z,11.70
2018-09-10T05:12:27.892Z,12.00
2018-09-10T05:15:03.341Z,12.20
2018-09-10T05:23:33.362Z,12.40
2018-09-10T05:26:07.885Z,12.50
2018-09-10T05:28:42.510Z,12.60
2018-09-10T05:31:29.722Z,12.60
2018-09-10T05:34:04.220Z,12.70
2018-09-10T05:36:34.470Z,12.80
2018-09-10T05:39:04.369Z,12.90
2018-09-10T05:43:48.739Z,13.10
2018-09-10T05:47:27.330Z,13.30
2018-09-10T05:49:56.283Z,13.60
2018-09-10T05:52:27.700Z,13.80
2018-09-10T05:54:58.130Z,14.00
2018-09-10T07:50:14.404Z,15.70
2018-09-10T09:20:42.752Z,15.90
2018-09-10T09:23:13.675Z,16.70
2018-09-10T10:41:57.054Z,17.00
2018-09-10T10:44:39.445Z,17.10
2018-09-10T10:47:18.715Z,17.70
2018-09-10T11:06:30.976Z,18.40
2018-09-10T11:08:59.971Z,19.40
2018-09-10T11:11:27.580Z,19.30
2018-09-10T11:13:57.355Z,19.60
2018-09-10T11:25:27.688Z,19.30
2018-09-10T11:27:55.533Z,19.50
2018-09-10T11:30:22.948Z,19.60
2018-09-10T11:32:50.481Z,19.80
2018-09-10T12:28:01.567Z,20.20
2018-09-10T13:29:55.319Z,18.80
2018-09-10T13:32:37.322Z,18.70
2018-09-10T14:12:17.583Z,18.80
2018-09-10T14:19:48.048Z,18.90
2018-09-10T14:22:23.704Z,19.00
2018-09-10T14:37:27.609Z,18.90
2018-09-10T14:50:08.353Z,18.40
2018-09-10T14:55:49.459Z,17.60
2018-09-10T14:58:19.788Z,17.50
2018-09-10T15:05:12.258Z,17.40
2018-09-10T15:10:38.504Z,17.20
2018-09-10T15:16:10.360Z,17.20
2018-09-10T15:18:43.531Z,17.20
2018-09-10T15:39:22.054Z,17.10
2018-09-10T15:42:08.832Z,17.00
2018-09-10T15:54:34.090Z,17.10
2018-09-10T15:57:22.403Z,17.00
2018-09-10T15:59:52.439Z,17.10
2018-09-10T16:02:22.662Z,17.30
2018-09-10T16:14:12.702Z,16.90
2018-09-10T16:16:41.711Z,16.70
2018-09-10T16:19:39.398Z,16.50
2018-09-10T16:22:08.601Z,16.30
2018-09-10T16:27:45.072Z,16.10
2018-09-10T16:34:43.713Z,15.80
2018-09-10T16:37:17.962Z,15.60
2018-09-10T16:42:56.649Z,15.50
2018-09-10T16:45:25.543Z,15.50
2018-09-10T16:48:02.829Z,15.50
2018-09-10T16:50:32.746Z,15.50
2018-09-10T16:53:04.505Z,15.50
2018-09-10T16:55:53.560Z,15.40
2018-09-10T16:58:25.806Z,15.40
2018-09-10T17:11:21.389Z,14.90
2018-09-10T17:13:56.958Z,14.90
2018-09-10T17:16:30.324Z,14.40
2018-09-10T17:43:55.867Z,13.90
2018-09-10T17:55:11.542Z,12.60
2018-09-10T17:57:40.978Z,12.50
2018-09-10T18:00:13.991Z,12.30
2018-09-10T18:02:44.087Z,12.10
2018-09-10T18:05:22.632Z,12.10
2018-09-10T18:11:20.305Z,11.80
2018-09-10T18:14:34.133Z,11.60
2018-09-10T18:17:08.289Z,11.60
2018-09-10T18:19:43.117Z,11.50
2018-09-10T18:22:19.482Z,11.50
2018-09-10T18:24:48.391Z,11.60
2018-09-10T18:27:29.180Z,11.60
2018-09-10T18:29:58.463Z,11.60
2018-09-10T18:35:39.361Z,11.50
2018-09-10T18:38:09.746Z,11.50
2018-09-10T18:40:39.926Z,11.40
2018-09-10T19:06:56.204Z,11.10
2018-09-10T19:09:35.333Z,11.20
2018-09-10T19:12:17.677Z,11.20
2018-09-10T19:17:46.325Z,11.20
2018-09-10T19:20:19.005Z,11.20
2018-09-10T19:22:49.235Z,11.20
2018-09-10T19:25:18.337Z,11.10
2018-09-10T19:27:47.735Z,11.10
2018-09-10T19:30:20.623Z,11.10
2018-09-10T19:32:50.437Z,11.00
2018-09-10T19:35:19.637Z,11.00
2018-09-10T19:37:54.875Z,11.00
2018-09-10T19:43:14.711Z,10.90
2018-09-10T19:45:44.687Z,10.90
2018-09-10T19:49:08.328Z,10.90
2018-09-10T19:51:47.251Z,10.80
2018-09-10T19:54:18.498Z,10.80
2018-09-10T20:01:06.136Z,10.80
2018-09-10T20:03:41.287Z,10.90
2018-09-10T20:06:10.532Z,11.00
2018-09-10T20:08:42.804Z,11.00
2018-09-10T20:11:17.435Z,11.00
2018-09-10T20:20:00.249Z,10.90
2018-09-10T20:22:39.272Z,10.90
2018-09-10T20:25:24.097Z,10.90
2018-09-10T20:28:00.971Z,10.90
2018-09-10T20:36:56.730Z,10.80
2018-09-10T20:39:40.437Z,10.90
2018-09-10T20:42:10.881Z,10.90
2018-09-10T20:44:43.619Z,10.90
2018-09-10T20:47:21.666Z,10.80
2018-09-10T20:49:56.393Z,10.70
2018-09-10T20:55:07.690Z,10.70
2018-09-10T21:01:50.883Z,10.70
2018-09-10T21:05:29.874Z,10.70
2018-09-10T21:13:38.264Z,10.70
2018-09-10T21:19:02.909Z,10.80
2018-09-10T21:22:11.278Z,10.90
2018-09-10T21:24:46.854Z,10.90
2018-09-10T21:30:20.967Z,11.00
2018-09-10T21:36:04.190Z,11.00
2018-09-10T21:38:35.076Z,11.00
2018-09-10T21:41:18.100Z,11.10
2018-09-10T21:44:03.108Z,11.10
2018-09-10T21:46:48.810Z,11.10
2018-09-10T21:49:23.308Z,11.10
2018-09-10T21:57:35.121Z,11.20
2018-09-10T22:00:15.070Z,11.10
2018-09-10T22:02:44.853Z,11.10
2018-09-10T22:05:19.815Z,11.10
2018-09-10T22:07:51.066Z,11.20
2018-09-10T22:12:32.452Z,11.20
2018-09-10T22:15:03.927Z,11.20
2018-09-10T22:17:40.607Z,11.10
2018-09-10T22:39:53.006Z,10.70
2018-09-10T22:42:24.020Z,10.60
2018-09-10T22:45:05.361Z,10.50
2018-09-10T22:47:59.057Z,10.50
2018-09-10T22:50:29.896Z,10.50
2018-09-10T22:56:09.714Z,10.70
2018-09-10T22:58:45.700Z,10.70
2018-09-10T23:01:23.292Z,10.60
2018-09-10T23:03:56.075Z,10.60
2018-09-10T23:06:28.270Z,10.60
2018-09-10T23:08:58.981Z,10.60
2018-09-10T23:11:28.386Z,10.60
2018-09-10T23:14:24.193Z,10.50
2018-09-10T23:16:58.375Z,10.50
2018-09-10T23:19:33.829Z,10.50
2018-09-10T23:22:03.190Z,10.50
2018-09-10T23:24:33.301Z,10.60
2018-09-10T23:30:06.538Z,10.50
2018-09-10T23:32:46.190Z,10.50
2018-09-10T23:35:17.259Z,10.50
2018-09-10T23:37:46.667Z,10.60
2018-09-10T23:43:18.429Z,10.60
2018-09-10T23:45:51.191Z,10.60
2018-09-10T23:48:36.274Z,10.60
2018-09-10T23:51:05.189Z,10.60
2018-09-10T23:53:41.943Z,10.60
2018-09-10T23:56:11.554Z,10.70
2018-09-10T23:58:46.076Z,10.70
